Time;durP1;ratioP1;P1;durP2;ratioP2;P2;SDS_P1;SDS_P2;PMS_P1;PMS_P2;Temp;Humidity;BMP_temperature;BMP_pressure;BME280_temperature;BME280_humidity;BME280_pressure;Samples;Min_cycle;Max_cycle;Signal;HPM_P1;HPM_P2
2024/01/15 00:01:13;;;;;;;36.85;35.00;;;;;;;4.50;66.73;100368.44;5011287;28;20377;-74
2024/01/15 00:03:39;;;;;;;36.50;34.80;;;;;;;4.52;66.60;100370.94;5025518;28;20065;-74
2024/01/15 00:06:04;;;;;;;38.20;36.30;;;;;;;4.51;66.70;100364.75;5013290;28;20373;-75
2024/01/15 00:08:30;;;;;;;38.13;36.33;;;;;;;4.51;66.63;100363.91;5029148;28;20036;-75
2024/01/15 00:10:55;;;;;;;38.30;36.30;;;;;;;4.50;66.50;100356.94;5042565;28;20029;-75
2024/01/15 00:13:20;;;;;;;39.40;37.50;;;;;;;4.49;66.91;100339.25;5029044;28;20124;-75
2024/01/15 00:15:46;;;;;;;39.28;37.40;;;;;;;4.48;66.70;100346.44;5029849;28;20036;-74
2024/01/15 00:18:11;;;;;;;36.22;34.53;;;;;;;4.48;66.47;100342.97;5027840;28;20065;-74
2024/01/15 00:20:36;;;;;;;38.60;36.78;;;;;;;4.45;66.74;100349.53;5028700;28;20030;-75
2024/01/15 00:23:02;;;;;;;38.45;36.45;;;;;;;4.45;66.74;100348.72;5009623;28;20393;-75
2024/01/15 00:25:27;;;;;;;37.40;35.60;;;;;;;4.44;66.48;100337.22;5009301;28;20561;-75
2024/01/15 00:27:53;;;;;;;40.70;38.65;;;;;;;4.44;66.60;100334.53;5029232;28;20041;-75
2024/01/15 00:30:18;;;;;;;36.65;34.95;;;;;;;4.44;66.79;100331.88;5009738;28;20033;-75
2024/01/15 00:32:43;;;;;;;39.22;36.88;;;;;;;4.45;66.82;100328.16;5024560;28;20030;-74
2024/01/15 00:35:09;;;;;;;37.08;35.28;;;;;;;4.45;66.87;100327.34;5015420;28;20124;-74
2024/01/15 00:37:34;;;;;;;37.20;35.40;;;;;;;4.46;66.40;100332.50;5030509;28;20112;-75
2024/01/15 00:40:00;;;;;;;40.80;38.70;;;;;;;4.48;66.43;100316.22;5032759;28;20108;-74
2024/01/15 00:42:25;;;;;;;39.63;37.75;;;;;;;4.49;66.43;100323.22;4969931;28;1188468;-74
2024/01/15 00:44:50;;;;;;;37.83;35.97;;;;;;;4.51;66.72;100315.78;5030473;28;20075;-74
2024/01/15 00:47:18;;;;;;;35.00;33.30;;;;;;;4.51;66.68;100318.44;5011495;28;20486;-74
2024/01/15 00:49:44;;;;;;;36.38;34.67;;;;;;;4.50;66.64;100312.28;5033597;28;20477;-74
2024/01/15 00:52:09;;;;;;;36.75;35.00;;;;;;;4.51;66.80;100318.44;5023102;28;20416;-74
2024/01/15 00:54:34;;;;;;;38.75;36.53;;;;;;;4.51;66.56;100302.41;5014186;28;20033;-75
2024/01/15 00:57:00;;;;;;;38.30;36.35;;;;;;;4.52;66.59;100304.88;5002113;28;20091;-76
2024/01/15 00:59:25;;;;;;;37.22;35.47;;;;;;;4.52;66.53;100307.56;5042226;28;20373;-75
2024/01/15 01:01:51;;;;;;;35.33;33.60;;;;;;;4.52;66.75;100306.72;5033232;28;20087;-75
2024/01/15 01:04:16;;;;;;;36.75;34.95;;;;;;;4.51;66.60;100305.06;5041570;28;20021;-75
2024/01/15 01:06:42;;;;;;;40.28;38.35;;;;;;;4.52;66.51;100290.69;5027959;28;20483;-73
2024/01/15 01:09:07;;;;;;;36.67;34.75;;;;;;;4.52;66.75;100290.69;5022937;28;20095;-76
2024/01/15 01:11:33;;;;;;;38.35;36.40;;;;;;;4.52;66.65;100299.53;5017174;28;20072;-74
2024/01/15 01:13:58;;;;;;;40.40;38.30;;;;;;;4.51;66.79;100297.06;5015721;28;20041;-74
2024/01/15 01:16:23;;;;;;;39.60;37.38;;;;;;;4.50;66.73;100296.25;5038029;28;20547;-75
2024/01/15 01:18:49;;;;;;;34.78;33.08;;;;;;;4.49;66.72;100293.78;5013287;28;20038;-74
2024/01/15 01:21:15;;;;;;;37.63;35.72;;;;;;;4.48;66.78;100287.59;5033164;28;20367;-75
2024/01/15 01:23:40;;;;;;;35.78;34.08;;;;;;;4.49;66.71;100285.78;5016870;28;20072;-75
2024/01/15 01:26:05;;;;;;;38.30;36.28;;;;;;;4.49;66.73;100283.91;5028044;28;20389;-74
2024/01/15 01:28:31;;;;;;;37.08;34.67;;;;;;;4.49;66.45;100280.44;5012385;28;20115;-75
2024/01/15 01:30:56;;;;;;;38.75;36.83;;;;;;;4.49;66.51;100283.09;5022805;28;20462;-74
2024/01/15 01:33:22;;;;;;;37.30;35.55;;;;;;;4.49;66.33;100291.94;5034236;28;20033;-75
2024/01/15 01:35:47;;;;;;;37.75;35.95;;;;;;;4.49;66.52;100289.25;5027264;28;20041;-76
2024/01/15 01:38:12;;;;;;;37.83;35.83;;;;;;;4.49;66.48;100299.97;5015633;28;20041;-75
2024/01/15 01:40:38;;;;;;;34.90;33.20;;;;;;;4.49;66.46;100293.78;5041857;28;20457;-74
2024/01/15 01:43:05;;;;;;;39.53;37.47;;;;;;;4.47;66.59;100288.66;5031550;28;20409;-75
2024/01/15 01:45:30;;;;;;;36.47;34.78;;;;;;;4.47;66.53;100285.97;5033301;28;20048;-75
2024/01/15 01:47:56;;;;;;;38.58;36.67;;;;;;;4.48;66.32;100290.28;5018299;28;20104;-75
2024/01/15 01:50:21;;;;;;;37.65;35.50;;;;;;;4.49;66.63;100285.78;5031789;28;20041;-74
2024/01/15 01:52:48;;;;;;;35.83;34.13;;;;;;;4.50;66.56;100282.06;5033134;28;20079;-75
2024/01/15 01:55:14;;;;;;;38.65;36.65;;;;;;;4.50;66.71;100287.41;5033812;28;20033;-75
2024/01/15 01:57:41;;;;;;;37.75;35.95;;;;;;;4.50;66.53;100282.88;5023162;28;20039;-74
2024/01/15 02:00:07;;;;;;;38.83;36.83;;;;;;;4.50;66.70;100285.53;5012123;28;20036;-74
2024/01/15 02:02:33;;;;;;;41.70;39.35;;;;;;;4.49;66.47;100283.91;5019779;28;20025;-75
2024/01/15 02:04:59;;;;;;;37.30;35.50;;;;;;;4.49;66.34;100291.94;5033009;28;20429;-78
2024/01/15 02:07:25;;;;;;;39.35;37.47;;;;;;;4.50;66.42;100293.56;5013706;28;20038;-75
2024/01/15 02:09:51;;;;;;;36.80;35.00;;;;;;;4.49;66.29;100289.25;5032654;28;20104;-75
2024/01/15 02:12:17;;;;;;;37.20;35.30;;;;;;;4.49;66.39;100291.13;5033971;28;20171;-75
2024/01/15 02:14:42;;;;;;;37.88;36.08;;;;;;;4.48;66.21;100287.59;5031686;28;20546;-75
2024/01/15 02:17:07;;;;;;;39.95;37.90;;;;;;;4.47;66.59;100287.84;5033080;28;20025;-75
2024/01/15 02:19:33;;;;;;;38.55;36.75;;;;;;;4.46;66.09;100289.69;5031651;28;20505;-74
2024/01/15 02:21:58;;;;;;;37.50;35.72;;;;;;;4.45;66.16;100287.22;5032530;28;20069;-74
2024/01/15 02:24:24;;;;;;;35.20;33.50;;;;;;;4.43;66.44;100278.59;5030103;28;20423;-75
2024/01/15 02:26:50;;;;;;;36.53;34.72;;;;;;;4.42;66.45;100277.78;5027943;28;20030;-74
2024/01/15 02:29:16;;;;;;;37.78;35.80;;;;;;;4.41;66.33;100278.81;5028953;28;20149;-75
2024/01/15 02:31:41;;;;;;;37.08;35.30;;;;;;;4.41;66.53;100275.31;5031126;28;20034;-74
2024/01/15 02:34:06;;;;;;;39.05;36.60;;;;;;;4.40;66.75;100277.16;5029654;28;20030;-74
2024/01/15 02:36:32;;;;;;;37.08;35.28;;;;;;;4.40;66.25;100277.16;5012998;28;20034;-75
2024/01/15 02:38:57;;;;;;;35.65;33.90;;;;;;;4.41;66.62;100275.31;5018435;28;20415;-74
2024/01/15 02:41:23;;;;;;;38.95;37.13;;;;;;;4.41;66.40;100277.97;5032781;28;20110;-74
2024/01/15 02:43:48;;;;;;;33.88;32.28;;;;;;;4.42;66.64;100274.28;5030152;28;20120;-74
2024/01/15 02:46:14;;;;;;;37.75;35.78;;;;;;;4.41;66.41;100272.63;5042423;28;20037;-74
2024/01/15 02:48:39;;;;;;;36.80;35.08;;;;;;;4.40;66.21;100277.16;5011325;28;20026;-75
2024/01/15 02:51:05;;;;;;;37.38;35.55;;;;;;;4.38;66.43;100276.53;5011160;28;20038;-75
2024/01/15 02:53:30;;;;;;;36.83;35.13;;;;;;;4.39;66.54;100288.91;4995266;28;20045;-75
2024/01/15 02:55:56;;;;;;;37.05;35.30;;;;;;;4.40;66.45;100292.38;5015390;28;20041;-74
2024/01/15 02:58:21;;;;;;;37.30;34.75;;;;;;;4.40;66.46;100287.03;5011994;28;20029;-76
2024/01/15 03:00:47;;;;;;;36.65;34.92;;;;;;;4.41;66.48;100288.66;5012692;28;20421;-75
2024/01/15 03:03:12;;;;;;;37.35;35.35;;;;;;;4.41;66.51;100288.66;5021356;28;20466;-75
2024/01/15 03:05:38;;;;;;;39.97;38.08;;;;;;;4.39;66.38;100267.50;5040182;28;20163;-76
2024/01/15 03:08:03;;;;;;;35.33;33.65;;;;;;;4.38;66.56;100259.69;5014379;28;20401;-75
2024/01/15 03:10:29;;;;;;;36.83;35.00;;;;;;;4.38;66.58;100263.19;5027593;28;20112;-75
2024/01/15 03:12:54;;;;;;;36.83;35.05;;;;;;;4.37;66.49;100266.09;5014126;28;20048;-75
2024/01/15 03:15:19;;;;;;;37.15;35.15;;;;;;;4.37;66.42;100276.78;5031463;28;20147;-74
2024/01/15 03:17:45;;;;;;;35.85;34.05;;;;;;;4.37;66.35;100279.44;5030156;28;20037;-74
2024/01/15 03:20:11;;;;;;;35.05;32.58;;;;;;;4.36;66.42;100273.28;5010417;28;20037;-74
2024/01/15 03:22:36;;;;;;;36.60;34.88;;;;;;;4.37;66.38;100276.78;4995106;28;20021;-74
2024/01/15 03:25:03;;;;;;;36.97;34.75;;;;;;;4.37;66.46;100288.28;5030426;28;20112;-74
2024/01/15 03:27:29;;;;;;;36.92;34.92;;;;;;;4.38;66.23;100289.09;5031383;28;20052;-75
2024/01/15 03:29:54;;;;;;;37.28;35.47;;;;;;;4.37;66.25;100280.28;5026543;28;20065;-74
2024/01/15 03:32:19;;;;;;;38.08;35.97;;;;;;;4.36;66.30;100275.13;5019803;28;20080;-75
2024/01/15 03:34:46;;;;;;;37.20;35.45;;;;;;;4.34;66.47;100275.34;5045795;28;20041;-75
2024/01/15 03:37:12;;;;;;;37.55;35.72;;;;;;;4.32;66.23;100270.22;5011689;28;20049;-74
2024/01/15 03:39:37;;;;;;;37.92;36.03;;;;;;;4.30;66.31;100280.28;5010810;28;20061;-75
2024/01/15 03:42:03;;;;;;;37.90;36.05;;;;;;;4.29;66.62;100278.66;5011594;28;20502;-74
2024/01/15 03:44:29;;;;;;;38.35;36.40;;;;;;;4.27;66.43;100274.56;5021649;28;20552;-75
2024/01/15 03:46:54;;;;;;;37.33;35.13;;;;;;;4.26;66.37;100276.41;5043489;28;20060;-75
2024/01/15 03:49:20;;;;;;;37.60;35.42;;;;;;;4.25;66.50;100263.25;5030799;28;20112;-75
2024/01/15 03:51:45;;;;;;;36.53;34.72;;;;;;;4.24;66.39;100258.94;5029762;28;20044;-75
2024/01/15 03:54:11;;;;;;;35.83;34.13;;;;;;;4.20;66.41;100279.91;5006078;28;20041;-75
2024/01/15 03:56:36;;;;;;;36.13;34.30;;;;;;;4.17;66.52;100266.19;5010119;28;20482;-75
2024/01/15 03:59:01;;;;;;;36.25;34.53;;;;;;;4.16;66.63;100264.50;5030286;28;20075;-75
2024/01/15 04:01:27;;;;;;;35.42;33.63;;;;;;;4.12;66.90;100248.91;5013109;28;20526;-74
2024/01/15 04:03:53;;;;;;;37.13;35.35;;;;;;;4.13;66.75;100255.06;5020923;28;20351;-74
2024/01/15 04:06:18;;;;;;;34.58;32.78;;;;;;;4.13;66.73;100244.38;5019959;28;20099;-74
2024/01/15 04:08:43;;;;;;;33.55;31.95;;;;;;;4.13;66.66;100252.41;5018906;28;20429;-75
2024/01/15 04:11:09;;;;;;;37.05;35.25;;;;;;;4.16;66.78;100249.31;5015422;28;20030;-75
2024/01/15 04:13:34;;;;;;;35.53;33.83;;;;;;;4.18;66.66;100252.56;5012867;28;20555;-74
2024/01/15 04:16:00;;;;;;;36.03;34.10;;;;;;;4.19;66.46;100256.91;5029919;28;20036;-74
2024/01/15 04:18:26;;;;;;;33.67;31.83;;;;;;;4.20;66.56;100257.72;5011139;28;20033;-74
2024/01/15 04:20:51;;;;;;;34.88;33.15;;;;;;;4.21;66.47;100259.34;5024938;28;20482;-74
2024/01/15 04:23:16;;;;;;;35.78;33.85;;;;;;;4.20;66.48;100257.72;5029251;28;20037;-74
2024/01/15 04:25:42;;;;;;;34.58;32.88;;;;;;;4.20;66.42;100260.41;5020698;28;20099;-74
2024/01/15 04:28:09;;;;;;;37.90;36.08;;;;;;;4.21;66.46;100254.00;5031040;28;20034;-74
2024/01/15 04:30:35;;;;;;;37.25;35.22;;;;;;;4.20;66.30;100241.69;5029941;28;20169;-74
2024/01/15 04:33:00;;;;;;;35.65;33.75;;;;;;;4.20;66.52;100245.16;5015734;28;20893;-74
2024/01/15 04:35:26;;;;;;;36.70;34.80;;;;;;;4.21;66.52;100243.31;5030161;28;20129;-77
2024/01/15 04:37:52;;;;;;;34.70;33.00;;;;;;;4.22;66.62;100237.75;5039444;28;20037;-74
2024/01/15 04:40:17;;;;;;;38.45;36.10;;;;;;;4.24;66.44;100234.88;4997174;28;20501;-75
2024/01/15 04:42:42;;;;;;;35.42;33.72;;;;;;;4.26;66.37;100235.50;4997536;28;20486;-74
2024/01/15 04:45:08;;;;;;;34.90;33.25;;;;;;;4.27;66.77;100231.78;5021618;28;20026;-74
2024/01/15 04:47:34;;;;;;;38.60;36.55;;;;;;;4.27;66.62;100221.91;5013311;28;20084;-74
2024/01/15 04:49:59;;;;;;;37.53;35.72;;;;;;;4.29;66.35;100225.19;5030369;28;20084;-75
2024/01/15 04:52:24;;;;;;;35.75;33.90;;;;;;;4.29;66.75;100219.84;5022747;28;20051;-75
2024/01/15 04:54:50;;;;;;;37.58;35.78;;;;;;;4.30;66.87;100220.66;5040020;28;20469;-74
2024/01/15 04:57:15;;;;;;;35.70;34.00;;;;;;;4.30;66.70;100220.66;5033130;28;20036;-76
2024/01/15 04:59:40;;;;;;;34.65;32.95;;;;;;;4.31;66.61;100212.44;5034031;28;20033;-74
2024/01/15 05:02:06;;;;;;;36.78;34.83;;;;;;;4.31;66.30;100212.44;5017651;28;20040;-75
2024/01/15 05:04:32;;;;;;;38.88;36.88;;;;;;;4.32;66.47;100205.22;5032581;28;20531;-74
2024/01/15 05:06:58;;;;;;;37.25;35.45;;;;;;;4.33;66.51;100204.19;5033779;28;20029;-74
2024/01/15 05:09:23;;;;;;;37.70;35.80;;;;;;;4.32;66.38;100206.03;5038577;28;20503;-74
2024/01/15 05:11:49;;;;;;;38.60;36.80;;;;;;;4.33;66.71;100201.50;5023366;28;20034;-74
2024/01/15 05:14:14;;;;;;;32.95;31.35;;;;;;;4.32;66.29;100202.53;5018381;28;20095;-74
2024/01/15 05:16:46;;;;;;;38.58;36.78;;;;;;;4.32;66.55;100202.53;5030594;28;20233;-75
2024/01/15 05:19:11;;;;;;;34.63;32.92;;;;;;;4.30;66.56;100197.41;5015228;28;20036;-75
2024/01/15 05:21:37;;;;;;;34.92;33.03;;;;;;;4.30;66.62;100197.41;5035089;28;20411;-74
2024/01/15 05:24:02;;;;;;;35.67;33.97;;;;;;;4.31;66.48;100203.59;5019867;28;20029;-75
2024/01/15 05:26:27;;;;;;;39.47;37.40;;;;;;;4.30;66.34;100205.44;5014278;28;20029;-74
2024/01/15 05:28:53;;;;;;;35.15;33.45;;;;;;;4.28;66.73;100196.81;5017620;28;20034;-74
2024/01/15 05:31:18;;;;;;;36.55;34.80;;;;;;;4.27;66.35;100191.69;5012824;28;20087;-74
2024/01/15 05:33:43;;;;;;;36.92;35.13;;;;;;;4.24;66.32;100184.91;5013814;28;20085;-75
2024/01/15 05:36:09;;;;;;;35.05;33.28;;;;;;;4.23;66.22;100183.25;5023925;28;20038;-75
2024/01/15 05:38:34;;;;;;;36.42;34.55;;;;;;;4.21;66.42;100182.66;5021943;28;20030;-75
2024/01/15 05:40:59;;;;;;;32.38;30.77;;;;;;;4.21;66.60;100182.66;5034310;28;20037;-75
2024/01/15 05:43:25;;;;;;;35.15;33.40;;;;;;;4.21;66.43;100177.31;5026693;28;20078;-74
2024/01/15 05:45:50;;;;;;;39.42;37.58;;;;;;;4.21;66.50;100171.13;5019561;28;20163;-75
2024/01/15 05:48:16;;;;;;;38.15;36.25;;;;;;;4.22;66.28;100183.47;4998281;28;20026;-76
2024/01/15 05:50:41;;;;;;;38.35;36.25;;;;;;;4.21;66.63;100184.50;5031646;28;20389;-74
2024/01/15 05:53:07;;;;;;;39.35;37.42;;;;;;;4.22;66.54;100186.16;5033435;28;20083;-76
2024/01/15 05:55:32;;;;;;;39.25;37.22;;;;;;;4.21;66.24;100198.72;5019329;28;20137;-75
2024/01/15 05:57:57;;;;;;;33.53;31.88;;;;;;;4.20;66.29;100194.38;5031790;28;20600;-76
2024/01/15 06:00:23;;;;;;;37.95;36.05;;;;;;;4.20;66.38;100197.06;5016423;28;20041;-76
2024/01/15 06:02:48;;;;;;;36.60;34.80;;;;;;;4.19;66.41;100194.63;5027637;28;20040;-77
2024/01/15 06:05:13;;;;;;;35.80;33.97;;;;;;;4.17;66.46;100192.13;5013739;28;20151;-76
2024/01/15 06:07:39;;;;;;;37.75;35.75;;;;;;;4.17;66.61;100180.63;5016318;28;20034;-76
2024/01/15 06:10:05;;;;;;;35.80;34.10;;;;;;;4.15;66.42;100186.19;4996151;28;20390;-76
2024/01/15 06:12:32;;;;;;;36.60;34.80;;;;;;;4.17;66.46;100180.63;5013004;28;20172;-76
2024/01/15 06:14:57;;;;;;;37.38;35.58;;;;;;;4.17;66.30;100181.44;5043619;28;20037;-75
2024/01/15 06:17:22;;;;;;;34.55;32.85;;;;;;;4.17;66.56;100173.44;5031594;28;20036;-77
2024/01/15 06:19:48;;;;;;;36.35;34.50;;;;;;;4.16;66.27;100176.31;5031519;28;20112;-76
2024/01/15 06:22:13;;;;;;;33.50;31.92;;;;;;;4.16;66.71;100169.13;5042985;28;20037;-75
2024/01/15 06:24:39;;;;;;;39.30;37.30;;;;;;;4.18;66.46;100167.03;5011697;28;20026;-76
2024/01/15 06:27:04;;;;;;;35.70;34.00;;;;;;;4.17;66.55;100164.59;5028584;28;20137;-75
2024/01/15 06:29:30;;;;;;;35.83;34.10;;;;;;;4.16;66.53;100163.78;5011985;28;20032;-76
2024/01/15 06:31:55;;;;;;;32.70;31.13;;;;;;;4.17;66.56;100161.91;5025187;28;20026;-75
2024/01/15 06:34:20;;;;;;;34.42;32.80;;;;;;;4.17;66.26;100159.25;5037950;28;20363;-74
2024/01/15 06:36:46;;;;;;;38.60;36.60;;;;;;;4.17;66.48;100160.06;5025065;28;20041;-75
2024/01/15 06:39:12;;;;;;;38.85;36.95;;;;;;;4.19;66.32;100163.34;5029928;28;20046;-74
2024/01/15 06:41:43;;;;;;;40.00;38.00;;;;;;;4.20;66.34;100162.31;5019533;28;20057;-75
2024/01/15 06:44:09;;;;;;;35.83;34.05;;;;;;;4.21;66.34;100173.81;5011088;28;20037;-75
2024/01/15 06:46:35;;;;;;;40.22;38.20;;;;;;;4.22;66.61;100172.78;5012767;28;20065;-75
2024/01/15 06:49:00;;;;;;;38.28;36.47;;;;;;;4.22;66.41;100172.78;5031910;28;20480;-75
2024/01/15 06:51:25;;;;;;;35.88;34.17;;;;;;;4.21;66.50;100182.66;5015170;28;20033;-76
2024/01/15 06:53:51;;;;;;;38.15;36.25;;;;;;;4.20;66.29;100180.19;5030425;28;20520;-75
2024/01/15 06:56:16;;;;;;;35.55;33.85;;;;;;;4.19;66.62;100171.38;5031587;28;20026;-75
2024/01/15 06:58:42;;;;;;;35.85;33.90;;;;;;;4.20;66.44;100174.84;5046539;28;20062;-81
2024/01/15 07:01:07;;;;;;;34.28;32.60;;;;;;;4.18;66.72;100176.91;5011401;28;20034;-78
2024/01/15 07:03:33;;;;;;;31.55;30.05;;;;;;;4.18;66.71;100176.91;4995167;28;20026;-76
2024/01/15 07:05:58;;;;;;;38.72;36.75;;;;;;;4.18;66.37;100171.56;5012220;28;20100;-77
2024/01/15 07:08:24;;;;;;;36.97;35.17;;;;;;;4.16;66.53;100170.97;5022538;28;20165;-76
2024/01/15 07:10:49;;;;;;;37.75;35.85;;;;;;;4.15;66.45;100180.84;5011210;28;20058;-77
2024/01/15 07:13:15;;;;;;;34.58;32.88;;;;;;;4.13;66.43;100185.56;5009962;28;20041;-76
2024/01/15 07:15:40;;;;;;;40.40;38.40;;;;;;;4.13;66.44;100188.25;5010828;28;20061;-77
2024/01/15 07:18:05;;;;;;;33.10;31.40;;;;;;;4.13;66.42;100190.91;5021554;28;20033;-76
2024/01/15 07:20:31;;;;;;;38.42;36.53;;;;;;;4.12;66.73;100194.63;5020549;28;20034;-76
2024/01/15 07:22:56;;;;;;;35.55;33.85;;;;;;;4.14;66.51;100200.59;5024779;28;20533;-76
2024/01/15 07:25:22;;;;;;;34.85;33.15;;;;;;;4.13;66.56;100193.59;5007360;28;20052;-77
2024/01/15 07:27:47;;;;;;;37.00;35.03;;;;;;;4.11;66.55;100188.47;5028879;28;20026;-79
2024/01/15 07:30:13;;;;;;;39.08;37.17;;;;;;;4.09;66.35;100185.19;5028655;28;20034;-75
2024/01/15 07:32:39;;;;;;;36.22;34.42;;;;;;;4.08;66.36;100188.06;5028772;28;20029;-76
2024/01/15 07:35:05;;;;;;;34.97;33.28;;;;;;;4.08;66.72;100193.41;5022139;28;20473;-76
2024/01/15 07:37:31;;;;;;;36.28;34.47;;;;;;;4.09;66.65;100193.22;5030290;28;20533;-76
2024/01/15 07:39:56;;;;;;;35.92;34.03;;;;;;;4.08;66.57;100190.75;5017319;28;20089;-75
2024/01/15 07:42:22;;;;;;;38.42;36.45;;;;;;;4.07;66.58;100194.47;5008350;28;20115;-86
2024/01/15 07:44:47;;;;;;;39.33;37.22;;;;;;;4.07;66.70;100202.47;5027289;28;20033;-75
2024/01/15 07:47:13;;;;;;;35.55;33.78;;;;;;;4.07;66.41;100197.94;5026314;28;20038;-74
2024/01/15 07:49:38;;;;;;;38.60;36.70;;;;;;;4.07;66.62;100205.16;5024889;28;20052;-75
2024/01/15 07:52:05;;;;;;;39.83;37.83;;;;;;;4.04;66.40;100214.41;5034687;28;20490;-77
2024/01/15 07:54:31;;;;;;;39.53;37.53;;;;;;;4.04;66.82;100211.75;5028502;28;20041;-75
2024/01/15 07:56:59;;;;;;;37.78;35.63;;;;;;;4.04;66.53;100210.94;5027236;28;20033;-75
2024/01/15 07:59:25;;;;;;;36.38;34.58;;;;;;;4.05;66.44;100209.88;5027592;28;20037;-76
2024/01/15 08:01:51;;;;;;;37.85;35.83;;;;;;;4.05;66.45;100209.88;5026869;28;20044;-75
2024/01/15 08:04:17;;;;;;;37.13;35.22;;;;;;;4.06;66.50;100203.53;5023625;28;20113;-75
2024/01/15 08:06:42;;;;;;;37.97;35.95;;;;;;;4.03;66.68;100202.09;4998208;28;20039;-76
2024/01/15 08:09:08;;;;;;;34.53;32.72;;;;;;;4.03;66.75;100198.56;5029378;28;20068;-75
2024/01/15 08:11:34;;;;;;;35.55;33.85;;;;;;;4.00;66.53;100215.84;5030630;28;20104;-76
2024/01/15 08:14:00;;;;;;;39.15;37.05;;;;;;;3.98;66.67;100204.59;5036558;28;20063;-77
2024/01/15 08:16:27;;;;;;;33.80;32.03;;;;;;;3.96;66.76;100224.53;5013751;28;20068;-76
2024/01/15 08:18:53;;;;;;;38.88;36.67;;;;;;;3.91;66.89;100217.16;5027914;28;20029;-76
2024/01/15 08:21:18;;;;;;;36.05;34.25;;;;;;;3.87;66.68;100219.41;5034385;28;20815;-77
2024/01/15 08:23:44;;;;;;;33.85;32.13;;;;;;;3.86;66.60;100230.31;5012341;28;20125;-77
2024/01/15 08:26:10;;;;;;;34.95;33.10;;;;;;;3.81;66.75;100227.47;5029206;28;20398;-78
2024/01/15 08:28:36;;;;;;;38.30;36.30;;;;;;;3.78;67.05;100218.03;5027569;28;20126;-76
2024/01/15 08:31:02;;;;;;;38.13;35.85;;;;;;;3.77;67.00;100212.88;5032942;28;20450;-76
2024/01/15 08:33:28;;;;;;;33.58;31.98;;;;;;;3.74;67.44;100211.44;5013554;28;20033;-75
2024/01/15 08:35:53;;;;;;;37.10;35.05;;;;;;;3.74;67.17;100216.78;5028350;28;20034;-76
2024/01/15 08:38:19;;;;;;;39.63;37.55;;;;;;;3.75;67.18;100204.25;5029344;28;20486;-76
2024/01/15 08:40:44;;;;;;;38.25;36.28;;;;;;;3.75;67.35;100213.06;5028561;28;20029;-77
2024/01/15 08:43:10;;;;;;;36.60;34.60;;;;;;;3.74;67.17;100219.47;5029544;28;20058;-77
2024/01/15 08:45:35;;;;;;;34.80;33.08;;;;;;;3.74;67.46;100226.66;5034225;28;20497;-75
2024/01/15 08:48:01;;;;;;;37.75;35.55;;;;;;;3.75;67.35;100229.09;5032845;28;20041;-76
2024/01/15 08:50:26;;;;;;;32.70;30.98;;;;;;;3.75;67.19;100220.28;5033555;28;20039;-75
2024/01/15 08:52:52;;;;;;;39.10;36.53;;;;;;;3.78;67.22;100226.03;5028962;28;20037;-75
2024/01/15 08:55:17;;;;;;;33.92;32.20;;;;;;;3.80;67.16;100226.63;5030318;28;20029;-76
2024/01/15 08:57:43;;;;;;;40.13;38.13;;;;;;;3.82;67.19;100227.22;5026447;28;20129;-77
2024/01/15 09:00:09;;;;;;;38.03;35.88;;;;;;;3.84;67.14;100229.72;5027034;28;20030;-78
2024/01/15 09:02:35;;;;;;;37.67;35.40;;;;;;;3.86;67.01;100233.00;5028082;28;20069;-76
2024/01/15 09:05:01;;;;;;;35.65;33.60;;;;;;;3.86;67.16;100233.00;5024020;28;20026;-77
2024/01/15 09:07:26;;;;;;;37.72;35.88;;;;;;;3.86;66.80;100238.34;5028525;28;20033;-77
2024/01/15 09:09:52;;;;;;;36.75;34.88;;;;;;;3.86;67.23;100249.84;5026720;28;20030;-77
2024/01/15 09:12:18;;;;;;;32.83;31.13;;;;;;;3.84;67.15;100230.53;5028500;28;20130;-77
2024/01/15 09:14:44;;;;;;;36.50;34.60;;;;;;;3.85;67.13;100228.66;5030249;28;20044;-78
2024/01/15 09:17:09;;;;;;;36.78;34.78;;;;;;;3.84;67.09;100225.19;5011485;28;20072;-78
2024/01/15 09:19:35;;;;;;;35.58;33.80;;;;;;;3.85;67.19;100213.44;5025878;28;20478;-75
2024/01/15 09:22:00;;;;;;;37.47;35.30;;;;;;;3.86;67.23;100204.41;5027006;28;20044;-76
2024/01/15 09:24:26;;;;;;;33.80;32.08;;;;;;;3.87;67.09;100210.56;5029880;28;20041;-77
2024/01/15 09:26:51;;;;;;;34.92;33.08;;;;;;;3.88;67.12;100213.06;5028484;28;20025;-77
2024/01/15 09:29:18;;;;;;;32.95;31.30;;;;;;;3.90;67.11;100218.16;5011426;28;20044;-78
2024/01/15 09:31:43;;;;;;;37.92;36.05;;;;;;;3.92;67.17;100209.94;5031206;28;20034;-82
2024/01/15 09:34:09;;;;;;;38.63;36.63;;;;;;;3.94;67.06;100210.56;5024577;28;20046;-78
2024/01/15 09:36:43;;;;;;;38.22;36.20;;;;;;;3.95;67.01;100210.31;5026004;28;20302;-77
2024/01/15 09:39:11;;;;;;;40.45;38.25;;;;;;;3.96;66.84;100216.53;5026530;28;20399;-77
2024/01/15 09:41:37;;;;;;;35.15;33.38;;;;;;;3.98;66.98;100222.44;5029253;28;20061;-77
2024/01/15 09:44:03;;;;;;;37.10;35.00;;;;;;;3.99;66.67;100227.59;5027324;28;20021;-77
2024/01/15 09:46:29;;;;;;;39.08;37.10;;;;;;;3.99;66.79;100221.44;5028062;28;20057;-76
2024/01/15 09:48:55;;;;;;;37.78;35.75;;;;;;;4.00;66.87;100231.88;5027650;28;20126;-77
2024/01/15 09:51:21;;;;;;;38.33;36.40;;;;;;;4.00;66.75;100239.09;5027858;28;20043;-76
2024/01/15 09:53:48;;;;;;;34.85;33.13;;;;;;;3.99;66.82;100237.47;5027317;28;20034;-78
2024/01/15 09:56:14;;;;;;;34.95;33.03;;;;;;;3.98;66.45;100236.66;5030559;28;20040;-77
2024/01/15 09:58:42;;;;;;;36.90;34.67;;;;;;;3.98;66.47;100243.81;5026952;28;20038;-77
2024/01/15 10:01:08;;;;;;;38.28;36.15;;;;;;;3.97;66.59;100251.03;5025732;28;20029;-77
2024/01/15 10:03:34;;;;;;;38.90;36.95;;;;;;;3.96;66.64;100249.41;5026323;28;20064;-78
2024/01/15 10:06:00;;;;;;;36.40;34.35;;;;;;;3.94;66.77;100246.13;5027332;28;20064;-78
2024/01/15 10:08:25;;;;;;;39.92;37.72;;;;;;;3.93;66.87;100248.97;5027619;28;20171;-78
2024/01/15 10:10:51;;;;;;;34.08;32.38;;;;;;;3.90;66.67;100247.56;5027328;28;20112;-78
2024/01/15 10:13:17;;;;;;;34.20;32.53;;;;;;;3.87;66.88;100251.47;5014649;28;20033;-78
2024/01/15 10:15:46;;;;;;;34.45;32.72;;;;;;;3.87;67.25;100247.97;5025978;28;20042;-79
2024/01/15 10:18:12;;;;;;;37.58;35.28;;;;;;;3.89;67.08;100246.75;5029080;28;20030;-78
2024/01/15 10:20:38;;;;;;;35.72;34.03;;;;;;;3.89;67.14;100246.75;5025792;28;20033;-79
2024/01/15 10:23:04;;;;;;;35.97;33.92;;;;;;;3.90;67.08;100244.88;5028868;28;20029;-78
2024/01/15 10:25:30;;;;;;;36.83;34.92;;;;;;;3.93;67.05;100246.31;5025863;28;20040;-79
2024/01/15 10:28:03;;;;;;;38.03;36.00;;;;;;;3.93;66.79;100236.47;5027629;28;20026;-79
2024/01/15 10:30:29;;;;;;;35.22;33.53;;;;;;;3.94;66.74;100230.06;5026790;28;20037;-78
2024/01/15 10:33:05;;;;;;;38.60;36.70;;;;;;;3.96;66.89;100237.91;5027745;28;20040;-78
2024/01/15 10:35:33;;;;;;;34.55;32.70;;;;;;;3.97;67.06;100239.53;5030098;28;20041;-77
2024/01/15 10:38:00;;;;;;;33.22;31.33;;;;;;;3.96;66.69;100235.22;5027149;28;20473;-78
2024/01/15 10:40:26;;;;;;;33.15;30.95;;;;;;;3.94;66.63;100234.63;5025713;28;20033;-79
2024/01/15 10:42:51;;;;;;;36.30;34.30;;;;;;;3.92;66.88;100232.13;5026725;28;20102;-80
2024/01/15 10:45:17;;;;;;;32.63;30.90;;;;;;;3.90;66.81;100232.34;5030202;28;20397;-76
2024/01/15 10:47:44;;;;;;;32.55;30.75;;;;;;;3.91;67.09;100230.50;5026058;28;20052;-77
2024/01/15 10:50:10;;;;;;;39.90;37.70;;;;;;;3.93;66.91;100244.47;5026144;28;20041;-76
2024/01/15 10:52:37;;;;;;;37.95;36.00;;;;;;;3.93;66.94;100247.16;5009430;28;20048;-78
2024/01/15 10:55:04;;;;;;;38.25;36.08;;;;;;;3.93;66.79;100244.47;5028220;28;20108;-78
2024/01/15 10:57:30;;;;;;;34.58;32.88;;;;;;;3.95;66.92;100253.09;5011065;28;20409;-78
2024/01/15 10:59:56;;;;;;;37.65;35.83;;;;;;;3.96;66.91;100245.91;5026268;28;20749;-77
2024/01/15 11:02:22;;;;;;;35.78;34.03;;;;;;;3.97;66.53;100245.69;5010819;28;20034;-78
2024/01/15 11:04:47;;;;;;;34.97;33.13;;;;;;;3.97;66.72;100240.34;5028804;28;20087;-77
2024/01/15 11:07:14;;;;;;;37.38;35.17;;;;;;;3.98;66.78;100243.81;5021779;28;20467;-78
2024/01/15 11:09:39;;;;;;;35.30;33.58;;;;;;;3.97;67.09;100242.19;5027471;28;20441;-87